sensor_id;sensor_type;location;lat;lon;timestamp;P1;durP1;ratioP1;P2;durP2;ratioP2
6823;SDS011;58633;49.470;11.004;2022-11-15T00:00:30;9.87;;;6.23;;
6823;SDS011;58633;49.470;11.004;2022-11-15T00:02:56;8.23;;;5.90;;
6823;SDS011;58633;49.470;11.004;2022-11-15T00:05:21;8.37;;;5.47;;
6823;SDS011;58633;49.470;11.004;2022-11-15T00:07:47;9.20;;;6.17;;
6823;SDS011;58633;49.470;11.004;2022-11-15T00:10:12;15.97;;;8.70;;
6823;SDS011;58633;49.470;11.004;2022-11-15T00:12:38;11.17;;;6.80;;
6823;SDS011;58633;49.470;11.004;2022-11-15T00:15:05;9.10;;;6.10;;
6823;SDS011;58633;49.470;11.004;2022-11-15T00:17:31;6.90;;;5.90;;
6823;SDS011;58633;49.470;11.004;2022-11-15T00:19:56;7.43;;;6.03;;
6823;SDS011;58633;49.470;11.004;2022-11-15T00:22:22;7.67;;;5.57;;
6823;SDS011;58633;49.470;11.004;2022-11-15T00:24:48;9.30;;;5.73;;
6823;SDS011;58633;49.470;11.004;2022-11-15T00:27:13;8.07;;;6.27;;
6823;SDS011;58633;49.470;11.004;2022-11-15T00:29:39;8.83;;;6.20;;
6823;SDS011;58633;49.470;11.004;2022-11-15T00:32:08;10.10;;;5.73;;
6823;SDS011;58633;49.470;11.004;2022-11-15T00:34:34;8.60;;;6.40;;
6823;SDS011;58633;49.470;11.004;2022-11-15T00:37:00;9.63;;;6.73;;
6823;SDS011;58633;49.470;11.004;2022-11-15T00:39:26;7.77;;;5.87;;
6823;SDS011;58633;49.470;11.004;2022-11-15T00:41:51;8.27;;;6.20;;
6823;SDS011;58633;49.470;11.004;2022-11-15T00:44:17;8.53;;;6.33;;
6823;SDS011;58633;49.470;11.004;2022-11-15T00:46:42;10.57;;;6.33;;
6823;SDS011;58633;49.470;11.004;2022-11-15T00:49:08;10.23;;;6.50;;
6823;SDS011;58633;49.470;11.004;2022-11-15T00:51:33;12.33;;;6.40;;
6823;SDS011;58633;49.470;11.004;2022-11-15T00:53:59;12.57;;;7.20;;
6823;SDS011;58633;49.470;11.004;2022-11-15T00:56:24;10.10;;;6.87;;
6823;SDS011;58633;49.470;11.004;2022-11-15T00:58:50;10.10;;;7.17;;
6823;SDS011;58633;49.470;11.004;2022-11-15T01:01:15;11.00;;;6.80;;
6823;SDS011;58633;49.470;11.004;2022-11-15T01:03:41;11.13;;;7.00;;
6823;SDS011;58633;49.470;11.004;2022-11-15T01:06:08;8.77;;;6.63;;
6823;SDS011;58633;49.470;11.004;2022-11-15T01:08:36;9.37;;;6.27;;
6823;SDS011;58633;49.470;11.004;2022-11-15T01:11:04;10.33;;;6.90;;
6823;SDS011;58633;49.470;11.004;2022-11-15T01:13:32;9.53;;;7.00;;
6823;SDS011;58633;49.470;11.004;2022-11-15T01:15:59;10.17;;;6.73;;
6823;SDS011;58633;49.470;11.004;2022-11-15T01:18:31;11.43;;;6.23;;
6823;SDS011;58633;49.470;11.004;2022-11-15T01:20:56;10.93;;;6.90;;
6823;SDS011;58633;49.470;11.004;2022-11-15T01:23:22;13.50;;;6.97;;
6823;SDS011;58633;49.470;11.004;2022-11-15T01:25:48;8.80;;;6.57;;
6823;SDS011;58633;49.470;11.004;2022-11-15T01:28:13;9.47;;;6.37;;
6823;SDS011;58633;49.470;11.004;2022-11-15T01:30:40;14.10;;;6.03;;
6823;SDS011;58633;49.470;11.004;2022-11-15T01:33:05;9.07;;;6.30;;
6823;SDS011;58633;49.470;11.004;2022-11-15T01:35:31;10.03;;;6.50;;
6823;SDS011;58633;49.470;11.004;2022-11-15T01:37:57;9.13;;;6.33;;
6823;SDS011;58633;49.470;11.004;2022-11-15T01:40:22;9.90;;;6.93;;
6823;SDS011;58633;49.470;11.004;2022-11-15T01:42:48;9.47;;;6.47;;
6823;SDS011;58633;49.470;11.004;2022-11-15T01:45:13;9.20;;;6.60;;
6823;SDS011;58633;49.470;11.004;2022-11-15T01:47:44;9.30;;;6.70;;
6823;SDS011;58633;49.470;11.004;2022-11-15T01:50:21;10.10;;;6.70;;
6823;SDS011;58633;49.470;11.004;2022-11-15T01:52:51;8.67;;;6.27;;
6823;SDS011;58633;49.470;11.004;2022-11-15T01:55:18;10.23;;;6.80;;
6823;SDS011;58633;49.470;11.004;2022-11-15T01:57:46;9.17;;;6.50;;
6823;SDS011;58633;49.470;11.004;2022-11-15T02:00:15;9.53;;;6.43;;
6823;SDS011;58633;49.470;11.004;2022-11-15T02:02:41;9.33;;;6.97;;
6823;SDS011;58633;49.470;11.004;2022-11-15T02:05:06;9.57;;;6.70;;
6823;SDS011;58633;49.470;11.004;2022-11-15T02:07:34;9.83;;;6.40;;
6823;SDS011;58633;49.470;11.004;2022-11-15T02:10:06;11.23;;;7.13;;
6823;SDS011;58633;49.470;11.004;2022-11-15T02:12:33;10.67;;;7.37;;
6823;SDS011;58633;49.470;11.004;2022-11-15T02:15:00;9.50;;;7.07;;
6823;SDS011;58633;49.470;11.004;2022-11-15T02:17:48;10.77;;;7.70;;
6823;SDS011;58633;49.470;11.004;2022-11-15T02:23:26;13.77;;;7.80;;
6823;SDS011;58633;49.470;11.004;2022-11-15T02:31:59;12.23;;;7.00;;
6823;SDS011;58633;49.470;11.004;2022-11-15T02:35:02;12.67;;;7.20;;
6823;SDS011;58633;49.470;11.004;2022-11-15T02:40:21;11.37;;;6.93;;
6823;SDS011;58633;49.470;11.004;2022-11-15T02:43:12;10.20;;;6.93;;
6823;SDS011;58633;49.470;11.004;2022-11-15T02:46:07;10.27;;;6.70;;
6823;SDS011;58633;49.470;11.004;2022-11-15T02:48:39;10.43;;;6.73;;
6823;SDS011;58633;49.470;11.004;2022-11-15T02:51:08;12.23;;;7.40;;
6823;SDS011;58633;49.470;11.004;2022-11-15T02:53:34;9.80;;;6.43;;
6823;SDS011;58633;49.470;11.004;2022-11-15T02:55:59;11.90;;;7.37;;
6823;SDS011;58633;49.470;11.004;2022-11-15T03:04:30;9.67;;;6.83;;
6823;SDS011;58633;49.470;11.004;2022-11-15T03:07:25;10.03;;;6.63;;
6823;SDS011;58633;49.470;11.004;2022-11-15T03:10:10;12.20;;;6.97;;
6823;SDS011;58633;49.470;11.004;2022-11-15T03:12:44;12.03;;;6.70;;
6823;SDS011;58633;49.470;11.004;2022-11-15T03:15:32;11.03;;;6.93;;
6823;SDS011;58633;49.470;11.004;2022-11-15T03:18:08;10.80;;;7.23;;
6823;SDS011;58633;49.470;11.004;2022-11-15T03:20:42;9.83;;;7.07;;
6823;SDS011;58633;49.470;11.004;2022-11-15T03:23:10;12.87;;;7.63;;
6823;SDS011;58633;49.470;11.004;2022-11-15T03:25:37;9.93;;;6.37;;
6823;SDS011;58633;49.470;11.004;2022-11-15T03:28:06;13.70;;;7.33;;
6823;SDS011;58633;49.470;11.004;2022-11-15T03:30:36;10.33;;;6.97;;
6823;SDS011;58633;49.470;11.004;2022-11-15T03:33:04;11.43;;;7.17;;
6823;SDS011;58633;49.470;11.004;2022-11-15T03:35:31;11.53;;;6.77;;
6823;SDS011;58633;49.470;11.004;2022-11-15T03:38:19;9.90;;;6.70;;
6823;SDS011;58633;49.470;11.004;2022-11-15T03:40:58;10.53;;;6.83;;
6823;SDS011;58633;49.470;11.004;2022-11-15T03:43:37;10.57;;;7.23;;
6823;SDS011;58633;49.470;11.004;2022-11-15T03:46:14;9.83;;;7.03;;
6823;SDS011;58633;49.470;11.004;2022-11-15T03:48:46;8.93;;;6.77;;
6823;SDS011;58633;49.470;11.004;2022-11-15T03:51:16;8.57;;;6.50;;
6823;SDS011;58633;49.470;11.004;2022-11-15T03:53:43;11.00;;;6.80;;
6823;SDS011;58633;49.470;11.004;2022-11-15T03:56:08;9.37;;;6.80;;
6823;SDS011;58633;49.470;11.004;2022-11-15T03:58:34;11.00;;;6.83;;
6823;SDS011;58633;49.470;11.004;2022-11-15T04:00:59;9.47;;;6.87;;
6823;SDS011;58633;49.470;11.004;2022-11-15T04:03:25;10.40;;;6.60;;
6823;SDS011;58633;49.470;11.004;2022-11-15T04:05:51;11.40;;;7.00;;
6823;SDS011;58633;49.470;11.004;2022-11-15T04:08:17;10.00;;;7.03;;
6823;SDS011;58633;49.470;11.004;2022-11-15T04:10:42;8.87;;;6.60;;
6823;SDS011;58633;49.470;11.004;2022-11-15T04:13:08;9.83;;;7.33;;
6823;SDS011;58633;49.470;11.004;2022-11-15T04:15:34;10.57;;;7.07;;
6823;SDS011;58633;49.470;11.004;2022-11-15T04:18:00;8.50;;;6.83;;
6823;SDS011;58633;49.470;11.004;2022-11-15T04:20:26;8.63;;;7.00;;
6823;SDS011;58633;49.470;11.004;2022-11-15T04:23:13;12.00;;;7.13;;
6823;SDS011;58633;49.470;11.004;2022-11-15T04:26:02;9.57;;;6.63;;
6823;SDS011;58633;49.470;11.004;2022-11-15T04:28:33;10.90;;;6.60;;
6823;SDS011;58633;49.470;11.004;2022-11-15T04:30:58;10.43;;;6.93;;
6823;SDS011;58633;49.470;11.004;2022-11-15T04:33:24;8.27;;;6.27;;
6823;SDS011;58633;49.470;11.004;2022-11-15T04:35:50;10.60;;;6.50;;
6823;SDS011;58633;49.470;11.004;2022-11-15T04:38:34;11.47;;;6.83;;
6823;SDS011;58633;49.470;11.004;2022-11-15T04:41:00;12.40;;;6.73;;
6823;SDS011;58633;49.470;11.004;2022-11-15T04:43:26;12.57;;;7.27;;
6823;SDS011;58633;49.470;11.004;2022-11-15T04:45:52;12.67;;;7.83;;
6823;SDS011;58633;49.470;11.004;2022-11-15T04:48:18;9.47;;;6.67;;
6823;SDS011;58633;49.470;11.004;2022-11-15T04:50:43;11.73;;;6.90;;
6823;SDS011;58633;49.470;11.004;2022-11-15T04:53:09;11.37;;;6.60;;
6823;SDS011;58633;49.470;11.004;2022-11-15T04:55:34;10.73;;;6.60;;
6823;SDS011;58633;49.470;11.004;2022-11-15T04:58:01;11.47;;;7.03;;
6823;SDS011;58633;49.470;11.004;2022-11-15T05:00:28;9.90;;;6.27;;
6823;SDS011;58633;49.470;11.004;2022-11-15T05:02:54;11.70;;;6.90;;
6823;SDS011;58633;49.470;11.004;2022-11-15T05:05:39;11.80;;;7.00;;
6823;SDS011;58633;49.470;11.004;2022-11-15T05:08:06;10.27;;;7.03;;
6823;SDS011;58633;49.470;11.004;2022-11-15T05:10:31;12.00;;;7.17;;
6823;SDS011;58633;49.470;11.004;2022-11-15T05:12:57;10.00;;;6.53;;
6823;SDS011;58633;49.470;11.004;2022-11-15T05:15:22;12.67;;;7.13;;
6823;SDS011;58633;49.470;11.004;2022-11-15T05:17:49;8.63;;;6.60;;
6823;SDS011;58633;49.470;11.004;2022-11-15T05:20:14;10.37;;;7.03;;
6823;SDS011;58633;49.470;11.004;2022-11-15T05:22:40;11.47;;;7.00;;
6823;SDS011;58633;49.470;11.004;2022-11-15T05:25:06;11.07;;;7.17;;
6823;SDS011;58633;49.470;11.004;2022-11-15T05:27:32;10.53;;;7.27;;
6823;SDS011;58633;49.470;11.004;2022-11-15T05:29:58;9.40;;;6.53;;
6823;SDS011;58633;49.470;11.004;2022-11-15T05:32:24;13.73;;;7.40;;
6823;SDS011;58633;49.470;11.004;2022-11-15T05:34:49;11.97;;;6.87;;
6823;SDS011;58633;49.470;11.004;2022-11-15T05:37:15;13.90;;;6.87;;
6823;SDS011;58633;49.470;11.004;2022-11-15T05:39:41;9.33;;;6.53;;
6823;SDS011;58633;49.470;11.004;2022-11-15T05:42:09;11.80;;;6.73;;
6823;SDS011;58633;49.470;11.004;2022-11-15T05:44:36;10.13;;;6.80;;
6823;SDS011;58633;49.470;11.004;2022-11-15T05:47:02;11.70;;;7.10;;
6823;SDS011;58633;49.470;11.004;2022-11-15T05:49:31;17.47;;;7.90;;
6823;SDS011;58633;49.470;11.004;2022-11-15T05:52:02;8.90;;;6.33;;
6823;SDS011;58633;49.470;11.004;2022-11-15T05:54:31;11.33;;;6.83;;
6823;SDS011;58633;49.470;11.004;2022-11-15T05:56:58;17.13;;;6.97;;
6823;SDS011;58633;49.470;11.004;2022-11-15T05:59:24;9.30;;;6.97;;
6823;SDS011;58633;49.470;11.004;2022-11-15T06:01:52;10.50;;;7.03;;
6823;SDS011;58633;49.470;11.004;2022-11-15T06:04:18;9.67;;;7.00;;
6823;SDS011;58633;49.470;11.004;2022-11-15T06:06:43;11.67;;;6.80;;
6823;SDS011;58633;49.470;11.004;2022-11-15T06:09:09;13.47;;;7.67;;
6823;SDS011;58633;49.470;11.004;2022-11-15T06:11:34;12.87;;;7.70;;
6823;SDS011;58633;49.470;11.004;2022-11-15T06:14:01;13.50;;;7.20;;
6823;SDS011;58633;49.470;11.004;2022-11-15T06:16:27;14.10;;;7.73;;
6823;SDS011;58633;49.470;11.004;2022-11-15T06:18:52;17.03;;;7.77;;
6823;SDS011;58633;49.470;11.004;2022-11-15T06:21:18;15.17;;;8.30;;
6823;SDS011;58633;49.470;11.004;2022-11-15T06:23:43;13.37;;;8.43;;
6823;SDS011;58633;49.470;11.004;2022-11-15T06:26:09;13.37;;;7.73;;
6823;SDS011;58633;49.470;11.004;2022-11-15T06:28:34;11.27;;;7.03;;
6823;SDS011;58633;49.470;11.004;2022-11-15T06:31:10;12.07;;;7.50;;
6823;SDS011;58633;49.470;11.004;2022-11-15T06:33:36;20.27;;;8.27;;
6823;SDS011;58633;49.470;11.004;2022-11-15T06:36:04;13.50;;;7.93;;
6823;SDS011;58633;49.470;11.004;2022-11-15T06:38:31;13.57;;;7.97;;
6823;SDS011;58633;49.470;11.004;2022-11-15T06:41:05;11.73;;;7.97;;
6823;SDS011;58633;49.470;11.004;2022-11-15T06:43:32;17.33;;;8.37;;
6823;SDS011;58633;49.470;11.004;2022-11-15T06:45:59;15.27;;;8.40;;
6823;SDS011;58633;49.470;11.004;2022-11-15T06:48:25;15.50;;;7.73;;
6823;SDS011;58633;49.470;11.004;2022-11-15T06:50:52;15.13;;;7.10;;
6823;SDS011;58633;49.470;11.004;2022-11-15T06:53:19;12.30;;;7.47;;
6823;SDS011;58633;49.470;11.004;2022-11-15T06:55:44;12.63;;;7.40;;
6823;SDS011;58633;49.470;11.004;2022-11-15T06:58:10;17.23;;;8.00;;
6823;SDS011;58633;49.470;11.004;2022-11-15T07:00:37;13.30;;;7.97;;
6823;SDS011;58633;49.470;11.004;2022-11-15T07:03:02;14.00;;;8.53;;
6823;SDS011;58633;49.470;11.004;2022-11-15T07:05:28;15.33;;;8.47;;
6823;SDS011;58633;49.470;11.004;2022-11-15T07:07:55;12.83;;;8.57;;
6823;SDS011;58633;49.470;11.004;2022-11-15T07:10:22;17.50;;;8.50;;
6823;SDS011;58633;49.470;11.004;2022-11-15T07:12:51;15.03;;;8.30;;
6823;SDS011;58633;49.470;11.004;2022-11-15T07:15:17;21.13;;;9.10;;
6823;SDS011;58633;49.470;11.004;2022-11-15T07:17:44;16.93;;;9.00;;
6823;SDS011;58633;49.470;11.004;2022-11-15T07:20:11;17.80;;;8.57;;
6823;SDS011;58633;49.470;11.004;2022-11-15T07:22:38;14.90;;;8.00;;
6823;SDS011;58633;49.470;11.004;2022-11-15T07:25:04;18.63;;;8.60;;
6823;SDS011;58633;49.470;11.004;2022-11-15T07:27:30;16.53;;;8.20;;
6823;SDS011;58633;49.470;11.004;2022-11-15T07:29:57;18.20;;;8.50;;
6823;SDS011;58633;49.470;11.004;2022-11-15T07:32:22;17.03;;;7.40;;
6823;SDS011;58633;49.470;11.004;2022-11-15T07:34:48;12.30;;;7.30;;
6823;SDS011;58633;49.470;11.004;2022-11-15T07:37:13;12.93;;;8.00;;
6823;SDS011;58633;49.470;11.004;2022-11-15T07:39:40;12.67;;;7.47;;
6823;SDS011;58633;49.470;11.004;2022-11-15T07:42:05;18.53;;;7.33;;
6823;SDS011;58633;49.470;11.004;2022-11-15T07:44:49;16.17;;;7.60;;
6823;SDS011;58633;49.470;11.004;2022-11-15T07:47:15;15.23;;;8.17;;
6823;SDS011;58633;49.470;11.004;2022-11-15T07:49:41;13.53;;;7.40;;
6823;SDS011;58633;49.470;11.004;2022-11-15T07:52:07;14.70;;;7.07;;
6823;SDS011;58633;49.470;11.004;2022-11-15T07:54:33;15.50;;;7.00;;
6823;SDS011;58633;49.470;11.004;2022-11-15T07:56:58;13.40;;;6.83;;
6823;SDS011;58633;49.470;11.004;2022-11-15T07:59:24;13.57;;;6.87;;
6823;SDS011;58633;49.470;11.004;2022-11-15T08:01:50;10.73;;;6.27;;
6823;SDS011;58633;49.470;11.004;2022-11-15T08:04:16;12.37;;;6.90;;
6823;SDS011;58633;49.470;11.004;2022-11-15T08:06:42;12.67;;;6.60;;
6823;SDS011;58633;49.470;11.004;2022-11-15T08:09:08;18.10;;;7.50;;
6823;SDS011;58633;49.470;11.004;2022-11-15T08:11:34;11.33;;;6.30;;
6823;SDS011;58633;49.470;11.004;2022-11-15T08:13:59;12.07;;;6.83;;
6823;SDS011;58633;49.470;11.004;2022-11-15T08:16:25;11.97;;;6.40;;
6823;SDS011;58633;49.470;11.004;2022-11-15T08:18:51;10.10;;;6.40;;
6823;SDS011;58633;49.470;11.004;2022-11-15T08:21:18;10.63;;;6.57;;
6823;SDS011;58633;49.470;11.004;2022-11-15T08:23:45;12.67;;;6.50;;
6823;SDS011;58633;49.470;11.004;2022-11-15T08:26:10;10.20;;;6.17;;
6823;SDS011;58633;49.470;11.004;2022-11-15T08:28:36;12.47;;;6.57;;
6823;SDS011;58633;49.470;11.004;2022-11-15T08:31:03;8.50;;;5.57;;
6823;SDS011;58633;49.470;11.004;2022-11-15T08:33:30;8.60;;;6.47;;
6823;SDS011;58633;49.470;11.004;2022-11-15T08:35:56;7.87;;;6.10;;
6823;SDS011;58633;49.470;11.004;2022-11-15T08:38:23;11.27;;;5.90;;
6823;SDS011;58633;49.470;11.004;2022-11-15T08:40:53;7.87;;;5.80;;
6823;SDS011;58633;49.470;11.004;2022-11-15T08:43:24;6.97;;;5.43;;
6823;SDS011;58633;49.470;11.004;2022-11-15T08:45:50;7.97;;;5.40;;
6823;SDS011;58633;49.470;11.004;2022-11-15T08:48:16;7.93;;;5.80;;
6823;SDS011;58633;49.470;11.004;2022-11-15T08:50:43;6.77;;;5.40;;
6823;SDS011;58633;49.470;11.004;2022-11-15T08:53:09;8.25;;;5.78;;
6823;SDS011;58633;49.470;11.004;2022-11-15T08:55:36;7.28;;;5.78;;
6823;SDS011;58633;49.470;11.004;2022-11-15T08:58:02;9.32;;;5.63;;
6823;SDS011;58633;49.470;11.004;2022-11-15T09:00:29;7.22;;;5.55;;
6823;SDS011;58633;49.470;11.004;2022-11-15T09:02:54;8.55;;;5.50;;
6823;SDS011;58633;49.470;11.004;2022-11-15T09:05:20;7.90;;;5.75;;
6823;SDS011;58633;49.470;11.004;2022-11-15T09:07:46;5.60;;;4.85;;
6823;SDS011;58633;49.470;11.004;2022-11-15T09:10:12;8.23;;;5.32;;
6823;SDS011;58633;49.470;11.004;2022-11-15T09:12:37;7.63;;;5.15;;
6823;SDS011;58633;49.470;11.004;2022-11-15T09:15:04;8.77;;;5.50;;
6823;SDS011;58633;49.470;11.004;2022-11-15T09:17:31;7.32;;;5.22;;
6823;SDS011;58633;49.470;11.004;2022-11-15T09:19:57;7.55;;;4.75;;
6823;SDS011;58633;49.470;11.004;2022-11-15T09:22:23;10.00;;;5.65;;
6823;SDS011;58633;49.470;11.004;2022-11-15T09:24:48;11.30;;;5.53;;
6823;SDS011;58633;49.470;11.004;2022-11-15T09:27:15;7.15;;;5.50;;
6823;SDS011;58633;49.470;11.004;2022-11-15T09:29:40;9.40;;;5.10;;
6823;SDS011;58633;49.470;11.004;2022-11-15T09:32:06;7.32;;;5.15;;
6823;SDS011;58633;49.470;11.004;2022-11-15T09:34:32;7.95;;;5.10;;
6823;SDS011;58633;49.470;11.004;2022-11-15T09:36:58;7.60;;;5.00;;
6823;SDS011;58633;49.470;11.004;2022-11-15T09:39:25;10.48;;;5.05;;
6823;SDS011;58633;49.470;11.004;2022-11-15T09:41:57;7.57;;;5.10;;
6823;SDS011;58633;49.470;11.004;2022-11-15T09:50:19;6.70;;;5.38;;
6823;SDS011;58633;49.470;11.004;2022-11-15T09:52:56;7.47;;;5.00;;
6823;SDS011;58633;49.470;11.004;2022-11-15T09:55:23;9.77;;;4.95;;
6823;SDS011;58633;49.470;11.004;2022-11-15T10:01:00;6.43;;;4.70;;
6823;SDS011;58633;49.470;11.004;2022-11-15T10:03:33;5.65;;;4.53;;
6823;SDS011;58633;49.470;11.004;2022-11-15T10:06:02;7.35;;;4.82;;
6823;SDS011;58633;49.470;11.004;2022-11-15T10:11:16;6.72;;;4.78;;
6823;SDS011;58633;49.470;11.004;2022-11-15T10:13:46;6.65;;;4.90;;
6823;SDS011;58633;49.470;11.004;2022-11-15T10:22:03;11.45;;;4.68;;
6823;SDS011;58633;49.470;11.004;2022-11-15T10:24:46;5.63;;;4.38;;
6823;SDS011;58633;49.470;11.004;2022-11-15T10:27:14;9.75;;;4.60;;
6823;SDS011;58633;49.470;11.004;2022-11-15T10:29:42;8.00;;;4.65;;
6823;SDS011;58633;49.470;11.004;2022-11-15T10:32:12;5.63;;;4.13;;
6823;SDS011;58633;49.470;11.004;2022-11-15T10:34:38;7.32;;;4.15;;
6823;SDS011;58633;49.470;11.004;2022-11-15T10:37:04;5.18;;;4.20;;
6823;SDS011;58633;49.470;11.004;2022-11-15T10:39:29;5.82;;;3.92;;
6823;SDS011;58633;49.470;11.004;2022-11-15T10:41:56;4.70;;;3.85;;
6823;SDS011;58633;49.470;11.004;2022-11-15T10:44:26;4.82;;;3.60;;
6823;SDS011;58633;49.470;11.004;2022-11-15T10:49:21;5.57;;;3.50;;
6823;SDS011;58633;49.470;11.004;2022-11-15T10:51:51;5.60;;;3.60;;
6823;SDS011;58633;49.470;11.004;2022-11-15T10:54:21;5.03;;;3.50;;
6823;SDS011;58633;49.470;11.004;2022-11-15T10:56:58;5.70;;;3.88;;
6823;SDS011;58633;49.470;11.004;2022-11-15T10:59:27;5.30;;;3.70;;
6823;SDS011;58633;49.470;11.004;2022-11-15T11:01:55;5.45;;;3.38;;
6823;SDS011;58633;49.470;11.004;2022-11-15T11:04:21;4.65;;;3.50;;
6823;SDS011;58633;49.470;11.004;2022-11-15T11:06:51;5.65;;;3.50;;
6823;SDS011;58633;49.470;11.004;2022-11-15T11:11:53;5.93;;;3.15;;
6823;SDS011;58633;49.470;11.004;2022-11-15T11:14:29;5.35;;;3.30;;
6823;SDS011;58633;49.470;11.004;2022-11-15T11:17:00;6.13;;;2.70;;
6823;SDS011;58633;49.470;11.004;2022-11-15T11:19:53;6.90;;;3.25;;
6823;SDS011;58633;49.470;11.004;2022-11-15T11:35:50;4.05;;;2.85;;
6823;SDS011;58633;49.470;11.004;2022-11-15T11:38:39;3.45;;;2.70;;
6823;SDS011;58633;49.470;11.004;2022-11-15T11:47:24;3.17;;;2.08;;
6823;SDS011;58633;49.470;11.004;2022-11-15T11:50:29;4.03;;;2.40;;
6823;SDS011;58633;49.470;11.004;2022-11-15T11:55:27;3.38;;;2.10;;
6823;SDS011;58633;49.470;11.004;2022-11-15T12:00:26;2.85;;;2.63;;
6823;SDS011;58633;49.470;11.004;2022-11-15T12:10:52;2.38;;;1.80;;
6823;SDS011;58633;49.470;11.004;2022-11-15T12:13:25;5.45;;;2.10;;
6823;SDS011;58633;49.470;11.004;2022-11-15T12:15:59;2.40;;;2.10;;
6823;SDS011;58633;49.470;11.004;2022-11-15T12:18:36;4.85;;;2.10;;
6823;SDS011;58633;49.470;11.004;2022-11-15T12:23:48;3.92;;;2.00;;
6823;SDS011;58633;49.470;11.004;2022-11-15T12:26:19;6.53;;;2.20;;
6823;SDS011;58633;49.470;11.004;2022-11-15T12:28:50;3.50;;;2.00;;
6823;SDS011;58633;49.470;11.004;2022-11-15T12:31:26;2.20;;;2.00;;
6823;SDS011;58633;49.470;11.004;2022-11-15T12:34:03;2.00;;;1.80;;
6823;SDS011;58633;49.470;11.004;2022-11-15T12:36:48;2.55;;;1.92;;
6823;SDS011;58633;49.470;11.004;2022-11-15T12:39:16;3.33;;;2.20;;
6823;SDS011;58633;49.470;11.004;2022-11-15T12:41:43;6.75;;;2.33;;
6823;SDS011;58633;49.470;11.004;2022-11-15T12:57:22;3.53;;;2.00;;
6823;SDS011;58633;49.470;11.004;2022-11-15T12:59:59;5.43;;;2.15;;
6823;SDS011;58633;49.470;11.004;2022-11-15T13:02:40;3.72;;;2.55;;
6823;SDS011;58633;49.470;11.004;2022-11-15T13:17:39;7.05;;;2.08;;
6823;SDS011;58633;49.470;11.004;2022-11-15T13:20:29;4.25;;;2.47;;
6823;SDS011;58633;49.470;11.004;2022-11-15T13:28:31;3.15;;;2.28;;
6823;SDS011;58633;49.470;11.004;2022-11-15T13:33:56;3.47;;;2.20;;
6823;SDS011;58633;49.470;11.004;2022-11-15T13:36:25;4.18;;;2.47;;
6823;SDS011;58633;49.470;11.004;2022-11-15T13:39:14;2.97;;;2.33;;
6823;SDS011;58633;49.470;11.004;2022-11-15T13:41:50;3.53;;;2.50;;
6823;SDS011;58633;49.470;11.004;2022-11-15T13:44:34;3.10;;;2.70;;
6823;SDS011;58633;49.470;11.004;2022-11-15T13:47:04;3.38;;;2.38;;
6823;SDS011;58633;49.470;11.004;2022-11-15T13:49:40;3.80;;;2.25;;
6823;SDS011;58633;49.470;11.004;2022-11-15T13:52:15;3.55;;;2.50;;
6823;SDS011;58633;49.470;11.004;2022-11-15T13:54:47;2.60;;;2.38;;
6823;SDS011;58633;49.470;11.004;2022-11-15T13:57:25;2.72;;;2.30;;
6823;SDS011;58633;49.470;11.004;2022-11-15T13:59:54;2.60;;;2.40;;
6823;SDS011;58633;49.470;11.004;2022-11-15T14:02:32;2.50;;;2.30;;
6823;SDS011;58633;49.470;11.004;2022-11-15T14:07:30;2.50;;;2.30;;
6823;SDS011;58633;49.470;11.004;2022-11-15T14:09:57;4.53;;;2.90;;
6823;SDS011;58633;49.470;11.004;2022-11-15T14:12:33;2.63;;;2.42;;
6823;SDS011;58633;49.470;11.004;2022-11-15T14:15:01;3.58;;;2.40;;
6823;SDS011;58633;49.470;11.004;2022-11-15T14:17:44;3.00;;;2.60;;
6823;SDS011;58633;49.470;11.004;2022-11-15T14:22:57;3.00;;;2.60;;
6823;SDS011;58633;49.470;11.004;2022-11-15T14:25:28;4.07;;;2.63;;
6823;SDS011;58633;49.470;11.004;2022-11-15T14:31:06;3.00;;;2.70;;
6823;SDS011;58633;49.470;11.004;2022-11-15T14:33:36;3.65;;;2.90;;
6823;SDS011;58633;49.470;11.004;2022-11-15T14:36:10;4.43;;;2.47;;
6823;SDS011;58633;49.470;11.004;2022-11-15T14:38:36;5.10;;;2.67;;
6823;SDS011;58633;49.470;11.004;2022-11-15T14:41:01;5.13;;;3.10;;
6823;SDS011;58633;49.470;11.004;2022-11-15T14:43:27;4.60;;;2.80;;
6823;SDS011;58633;49.470;11.004;2022-11-15T14:45:53;6.53;;;3.70;;
6823;SDS011;58633;49.470;11.004;2022-11-15T14:48:18;7.97;;;2.65;;
6823;SDS011;58633;49.470;11.004;2022-11-15T14:50:44;3.30;;;2.60;;
6823;SDS011;58633;49.470;11.004;2022-11-15T14:53:14;3.30;;;2.63;;
6823;SDS011;58633;49.470;11.004;2022-11-15T14:55:41;3.75;;;2.88;;
6823;SDS011;58633;49.470;11.004;2022-11-15T14:58:07;3.40;;;3.00;;
6823;SDS011;58633;49.470;11.004;2022-11-15T15:00:35;5.53;;;3.28;;
6823;SDS011;58633;49.470;11.004;2022-11-15T15:03:02;4.03;;;3.03;;
6823;SDS011;58633;49.470;11.004;2022-11-15T15:07:55;4.60;;;3.30;;
6823;SDS011;58633;49.470;11.004;2022-11-15T15:10:21;4.80;;;3.28;;
6823;SDS011;58633;49.470;11.004;2022-11-15T15:12:47;5.93;;;3.15;;
6823;SDS011;58633;49.470;11.004;2022-11-15T15:15:15;3.88;;;3.35;;
6823;SDS011;58633;49.470;11.004;2022-11-15T15:17:51;7.10;;;3.58;;
6823;SDS011;58633;49.470;11.004;2022-11-15T15:20:17;5.53;;;3.90;;
6823;SDS011;58633;49.470;11.004;2022-11-15T15:22:43;7.03;;;4.07;;
6823;SDS011;58633;49.470;11.004;2022-11-15T15:25:23;8.32;;;4.70;;
6823;SDS011;58633;49.470;11.004;2022-11-15T15:27:51;7.65;;;4.38;;
6823;SDS011;58633;49.470;11.004;2022-11-15T15:30:17;8.55;;;4.85;;
6823;SDS011;58633;49.470;11.004;2022-11-15T15:32:44;10.82;;;4.88;;
6823;SDS011;58633;49.470;11.004;2022-11-15T15:35:11;10.57;;;6.18;;
6823;SDS011;58633;49.470;11.004;2022-11-15T15:37:38;10.75;;;6.65;;
6823;SDS011;58633;49.470;11.004;2022-11-15T15:40:08;13.50;;;9.15;;
6823;SDS011;58633;49.470;11.004;2022-11-15T15:42:37;8.30;;;5.47;;
6823;SDS011;58633;49.470;11.004;2022-11-15T15:45:04;16.02;;;10.27;;
6823;SDS011;58633;49.470;11.004;2022-11-15T15:47:30;9.68;;;5.80;;
6823;SDS011;58633;49.470;11.004;2022-11-15T15:49:57;6.97;;;5.05;;
6823;SDS011;58633;49.470;11.004;2022-11-15T15:52:22;12.07;;;5.20;;
6823;SDS011;58633;49.470;11.004;2022-11-15T15:54:48;10.45;;;5.50;;
6823;SDS011;58633;49.470;11.004;2022-11-15T15:57:14;7.60;;;5.30;;
6823;SDS011;58633;49.470;11.004;2022-11-15T15:59:41;7.97;;;5.57;;
6823;SDS011;58633;49.470;11.004;2022-11-15T16:02:08;9.52;;;5.57;;
6823;SDS011;58633;49.470;11.004;2022-11-15T16:04:37;12.05;;;5.28;;
6823;SDS011;58633;49.470;11.004;2022-11-15T16:07:03;10.80;;;5.80;;
6823;SDS011;58633;49.470;11.004;2022-11-15T16:09:29;11.07;;;6.07;;
6823;SDS011;58633;49.470;11.004;2022-11-15T16:12:13;14.57;;;7.22;;
6823;SDS011;58633;49.470;11.004;2022-11-15T16:14:41;10.18;;;6.10;;
6823;SDS011;58633;49.470;11.004;2022-11-15T16:17:09;10.38;;;5.88;;
6823;SDS011;58633;49.470;11.004;2022-11-15T16:19:51;11.70;;;6.95;;
6823;SDS011;58633;49.470;11.004;2022-11-15T16:22:17;12.60;;;6.97;;
6823;SDS011;58633;49.470;11.004;2022-11-15T16:24:42;15.02;;;8.35;;
6823;SDS011;58633;49.470;11.004;2022-11-15T16:27:18;15.38;;;9.73;;
6823;SDS011;58633;49.470;11.004;2022-11-15T16:29:46;12.40;;;7.57;;
6823;SDS011;58633;49.470;11.004;2022-11-15T16:32:12;15.65;;;8.57;;
6823;SDS011;58633;49.470;11.004;2022-11-15T16:34:38;12.65;;;7.15;;
6823;SDS011;58633;49.470;11.004;2022-11-15T16:37:04;21.02;;;7.40;;
6823;SDS011;58633;49.470;11.004;2022-11-15T16:39:31;13.18;;;8.20;;
6823;SDS011;58633;49.470;11.004;2022-11-15T16:41:59;16.27;;;8.75;;
6823;SDS011;58633;49.470;11.004;2022-11-15T16:44:25;16.48;;;10.25;;
6823;SDS011;58633;49.470;11.004;2022-11-15T16:46:51;18.52;;;9.25;;
6823;SDS011;58633;49.470;11.004;2022-11-15T16:49:18;12.35;;;8.75;;
6823;SDS011;58633;49.470;11.004;2022-11-15T16:51:45;12.80;;;7.43;;